createdAt,value
2018-01-06T00:00:15.730Z,0
2018-01-06T00:01:16.300Z,0
2018-01-06T00:02:16.870Z,0
2018-01-06T00:03:17.448Z,0
2018-01-06T00:04:18.008Z,0
2018-01-06T00:05:18.579Z,0
2018-01-06T00:06:19.147Z,0
2018-01-06T00:07:19.717Z,0
2018-01-06T00:08:20.284Z,0
2018-01-06T00:09:20.854Z,0
2018-01-06T00:10:21.435Z,0
2018-01-06T00:11:22.005Z,0
2018-01-06T00:12:22.575Z,0
2018-01-06T00:13:23.146Z,0
2018-01-06T00:14:23.713Z,0
2018-01-06T00:15:24.282Z,0
2018-01-06T00:16:24.852Z,0
2018-01-06T00:17:25.422Z,0
2018-01-06T00:18:25.992Z,0
2018-01-06T00:19:26.560Z,0
2018-01-06T00:20:27.146Z,0
2018-01-06T00:21:27.714Z,0
2018-01-06T00:22:28.283Z,0
2018-01-06T00:23:28.852Z,0
2018-01-06T00:24:29.422Z,0
2018-01-06T00:25:29.988Z,0
2018-01-06T00:26:30.557Z,0
2018-01-06T00:27:31.127Z,0
2018-01-06T00:28:31.696Z,0
2018-01-06T00:29:32.264Z,0
2018-01-06T00:30:32.835Z,0
2018-01-06T00:31:33.404Z,0
2018-01-06T00:32:33.987Z,0
2018-01-06T00:33:34.558Z,0
2018-01-06T00:34:35.147Z,0
2018-01-06T00:35:35.709Z,0
2018-01-06T00:36:36.278Z,0
2018-01-06T00:37:36.846Z,0
2018-01-06T00:38:37.428Z,0
2018-01-06T00:39:37.998Z,0
2018-01-06T00:40:38.569Z,0
2018-01-06T00:41:39.138Z,0
2018-01-06T00:42:39.709Z,0
2018-01-06T00:43:40.278Z,0
2018-01-06T00:44:40.861Z,0
2018-01-06T00:45:41.431Z,0
2018-01-06T00:46:42.001Z,0
2018-01-06T00:47:42.588Z,0
2018-01-06T00:48:43.152Z,0
2018-01-06T00:49:43.747Z,0
2018-01-06T00:50:44.291Z,0
2018-01-06T00:51:44.863Z,0
2018-01-06T00:52:45.435Z,0
2018-01-06T00:53:46.000Z,0
2018-01-06T00:54:46.587Z,0
2018-01-06T00:55:47.170Z,0
2018-01-06T00:56:47.738Z,0
2018-01-06T00:57:48.307Z,0
2018-01-06T00:58:48.875Z,0
2018-01-06T00:59:49.458Z,0
2018-01-06T01:00:50.028Z,0
2018-01-06T01:01:50.607Z,0
2018-01-06T01:02:51.166Z,0
2018-01-06T01:03:51.737Z,0
2018-01-06T01:04:52.321Z,0
2018-01-06T01:05:52.891Z,0
2018-01-06T01:06:53.462Z,0
2018-01-06T01:07:54.030Z,0
2018-01-06T01:08:54.599Z,0
2018-01-06T01:09:55.167Z,0
2018-01-06T01:10:55.736Z,0
2018-01-06T01:11:56.308Z,0
2018-01-06T01:12:56.892Z,0
2018-01-06T01:13:57.461Z,0
2018-01-06T01:14:58.031Z,0
2018-01-06T01:15:58.599Z,0
2018-01-06T01:16:59.168Z,0
2018-01-06T01:17:59.737Z,0
2018-01-06T01:19:00.322Z,0
2018-01-06T01:20:00.892Z,0
2018-01-06T01:21:01.462Z,0
2018-01-06T01:22:02.031Z,0
2018-01-06T01:23:02.600Z,0
2018-01-06T01:24:03.167Z,0
2018-01-06T01:25:03.737Z,0
2018-01-06T01:26:04.306Z,0
2018-01-06T01:27:04.875Z,0
2018-01-06T01:28:05.446Z,0
2018-01-06T01:29:06.017Z,0
2018-01-06T01:30:06.586Z,0
2018-01-06T01:31:07.155Z,0
2018-01-06T01:32:07.725Z,0
2018-01-06T01:33:08.296Z,0
2018-01-06T01:34:08.863Z,0
2018-01-06T01:35:09.433Z,0
2018-01-06T01:36:10.002Z,0
2018-01-06T01:37:10.570Z,0
2018-01-06T01:38:11.139Z,0
2018-01-06T01:39:11.708Z,0
2018-01-06T01:40:12.280Z,0
2018-01-06T01:41:12.847Z,0
2018-01-06T01:42:13.417Z,0
2018-01-06T01:43:13.985Z,0
2018-01-06T01:44:14.553Z,0
2018-01-06T01:45:15.136Z,0
2018-01-06T01:46:15.703Z,0
2018-01-06T01:47:16.271Z,0
2018-01-06T01:48:16.843Z,0
2018-01-06T01:49:17.413Z,0
2018-01-06T01:50:17.983Z,0
2018-01-06T01:51:18.552Z,0
2018-01-06T01:52:19.120Z,0
2018-01-06T01:53:19.689Z,0
2018-01-06T01:54:20.259Z,0
2018-01-06T01:55:20.831Z,0
2018-01-06T01:56:21.399Z,0
2018-01-06T01:57:21.968Z,0
2018-01-06T01:58:22.536Z,0
2018-01-06T01:59:23.104Z,0
2018-01-06T02:00:23.675Z,0
2018-01-06T02:01:24.244Z,0
2018-01-06T02:02:24.814Z,0
2018-01-06T02:03:25.384Z,0
2018-01-06T02:04:25.966Z,0
2018-01-06T02:05:26.535Z,0
2018-01-06T02:06:27.104Z,0
2018-01-06T02:07:27.672Z,0
2018-01-06T02:08:28.243Z,0
2018-01-06T02:09:28.817Z,0
2018-01-06T02:10:29.397Z,0
2018-01-06T02:11:29.968Z,0
2018-01-06T02:12:30.536Z,0
2018-01-06T02:13:31.105Z,0
2018-01-06T02:14:31.673Z,0
2018-01-06T02:15:32.241Z,0
2018-01-06T02:16:32.816Z,0
2018-01-06T02:17:33.381Z,0
2018-01-06T02:18:33.951Z,0
2018-01-06T02:19:34.520Z,0
2018-01-06T02:20:35.088Z,0
2018-01-06T02:21:35.656Z,0
2018-01-06T02:22:36.240Z,0
2018-01-06T02:23:36.808Z,0
2018-01-06T02:24:37.376Z,0
2018-01-06T02:25:37.946Z,0
2018-01-06T02:26:38.519Z,0
2018-01-06T02:27:39.086Z,0
2018-01-06T02:28:39.655Z,0
2018-01-06T02:29:40.223Z,0
2018-01-06T02:30:40.792Z,0
2018-01-06T02:31:41.374Z,0
2018-01-06T02:32:41.943Z,0
2018-01-06T02:33:42.511Z,0
2018-01-06T02:34:43.085Z,0
2018-01-06T02:35:43.649Z,0
2018-01-06T02:36:44.232Z,0
2018-01-06T02:37:44.805Z,0
2018-01-06T02:38:45.372Z,0
2018-01-06T02:39:45.954Z,0
2018-01-06T02:40:46.524Z,0
2018-01-06T02:41:47.093Z,0
2018-01-06T02:42:47.661Z,0
2018-01-06T02:43:48.231Z,0
2018-01-06T02:44:48.803Z,0
2018-01-06T02:45:49.384Z,0
2018-01-06T02:46:49.955Z,0
2018-01-06T02:47:50.523Z,0
2018-01-06T02:48:51.092Z,0
2018-01-06T02:49:51.661Z,0
2018-01-06T02:50:52.230Z,0
2018-01-06T02:51:52.799Z,0
2018-01-06T02:52:53.367Z,0
2018-01-06T02:53:53.937Z,0
2018-01-06T02:54:54.507Z,0
2018-01-06T02:55:55.076Z,0
2018-01-06T02:56:55.644Z,0
2018-01-06T02:57:56.229Z,0
2018-01-06T02:58:56.797Z,0
2018-01-06T02:59:57.366Z,0
2018-01-06T03:00:57.936Z,0
2018-01-06T03:01:58.508Z,0
2018-01-06T03:02:59.091Z,0
2018-01-06T03:03:59.660Z,0
2018-01-06T03:05:00.229Z,0
2018-01-06T03:06:00.797Z,0
2018-01-06T03:07:01.383Z,0
2018-01-06T03:08:01.966Z,0
2018-01-06T03:09:02.536Z,0
2018-01-06T03:10:03.104Z,0
2018-01-06T03:11:03.673Z,0
2018-01-06T03:12:04.244Z,0
2018-01-06T03:13:04.813Z,0
2018-01-06T03:14:05.382Z,0
2018-01-06T03:15:05.953Z,0
2018-01-06T03:16:06.519Z,0
2018-01-06T03:17:07.087Z,0
2018-01-06T03:18:07.656Z,0
2018-01-06T03:19:08.230Z,0
2018-01-06T03:20:08.795Z,0
2018-01-06T03:21:09.366Z,0
2018-01-06T03:22:09.940Z,0
2018-01-06T03:23:10.507Z,0
2018-01-06T03:24:11.089Z,0
2018-01-06T03:25:11.656Z,0
2018-01-06T03:26:12.226Z,0
2018-01-06T03:27:12.797Z,0
2018-01-06T03:28:13.366Z,0
2018-01-06T03:29:13.934Z,0
2018-01-06T03:30:14.504Z,0
2018-01-06T03:31:15.073Z,0
2018-01-06T03:32:15.642Z,0
2018-01-06T03:33:16.210Z,0
2018-01-06T03:34:16.795Z,0
2018-01-06T03:35:17.364Z,0
2018-01-06T03:36:17.932Z,0
2018-01-06T03:37:18.501Z,0
2018-01-06T03:38:19.084Z,0
2018-01-06T03:39:19.654Z,0
2018-01-06T03:40:20.225Z,0
2018-01-06T03:41:20.807Z,0
2018-01-06T03:42:21.376Z,0
2018-01-06T03:43:21.946Z,0
2018-01-06T03:44:22.517Z,0
2018-01-06T03:45:23.086Z,0
2018-01-06T03:46:23.655Z,0
2018-01-06T03:47:24.223Z,0
2018-01-06T03:48:24.793Z,0
2018-01-06T03:49:25.363Z,0
2018-01-06T03:50:25.931Z,0
2018-01-06T03:51:26.503Z,0
2018-01-06T03:52:27.069Z,0
2018-01-06T03:53:27.637Z,0
2018-01-06T03:54:28.205Z,0
2018-01-06T03:55:28.775Z,0
2018-01-06T03:56:29.345Z,0
2018-01-06T03:57:29.914Z,0
2018-01-06T03:58:30.482Z,0
2018-01-06T03:59:31.051Z,0
2018-01-06T04:00:31.619Z,0
2018-01-06T04:01:32.189Z,0
2018-01-06T04:02:32.759Z,0
2018-01-06T04:03:33.330Z,0
2018-01-06T04:04:33.902Z,0
2018-01-06T04:05:34.468Z,0
2018-01-06T04:06:35.038Z,0
2018-01-06T04:07:35.621Z,0
2018-01-06T04:08:36.191Z,0
2018-01-06T04:09:36.760Z,0
2018-01-06T04:10:37.330Z,0
2018-01-06T04:11:37.899Z,0
2018-01-06T04:12:38.468Z,0
2018-01-06T04:13:39.055Z,0
2018-01-06T04:14:39.620Z,0
2018-01-06T04:15:40.204Z,0
2018-01-06T04:16:40.782Z,0
2018-01-06T04:17:41.356Z,0
2018-01-06T04:18:41.923Z,0
2018-01-06T04:19:42.491Z,0
2018-01-06T04:20:43.061Z,0
2018-01-06T04:21:43.631Z,0
2018-01-06T04:22:44.204Z,0
2018-01-06T04:23:44.770Z,0
2018-01-06T04:24:45.338Z,0
2018-01-06T04:25:45.907Z,0
2018-01-06T04:26:46.478Z,0
2018-01-06T04:27:47.046Z,0
2018-01-06T04:28:47.617Z,0
2018-01-06T04:29:48.186Z,0
2018-01-06T04:30:48.753Z,0
2018-01-06T04:31:49.333Z,0
2018-01-06T04:32:49.901Z,0
2018-01-06T04:33:50.470Z,0
2018-01-06T04:34:51.038Z,0
2018-01-06T04:35:51.621Z,0
2018-01-06T04:36:52.189Z,0
2018-01-06T04:37:52.760Z,0
2018-01-06T04:38:53.329Z,0
2018-01-06T04:39:53.900Z,0
2018-01-06T04:40:54.469Z,0
2018-01-06T04:41:55.036Z,0
2018-01-06T04:42:55.604Z,0
2018-01-06T04:43:56.174Z,0
2018-01-06T04:44:56.743Z,0
2018-01-06T04:45:57.311Z,0
2018-01-06T04:46:57.881Z,0
2018-01-06T04:47:58.450Z,0
2018-01-06T04:48:59.018Z,0
2018-01-06T04:49:59.589Z,0
2018-01-06T04:51:00.169Z,0
2018-01-06T04:52:00.736Z,0
2018-01-06T04:53:01.306Z,0
2018-01-06T04:54:01.888Z,0
2018-01-06T04:55:02.457Z,0
2018-01-06T04:56:03.028Z,0
2018-01-06T04:57:03.597Z,0
2018-01-06T04:58:04.166Z,0
2018-01-06T04:59:04.732Z,0
2018-01-06T05:00:05.299Z,0
2018-01-06T05:01:05.867Z,0
2018-01-06T05:02:06.436Z,0
2018-01-06T05:03:07.006Z,0
2018-01-06T05:04:07.576Z,0
2018-01-06T05:05:08.160Z,0
2018-01-06T05:06:08.730Z,0
2018-01-06T05:07:09.298Z,0
2018-01-06T05:08:09.867Z,0
2018-01-06T05:09:10.433Z,0
2018-01-06T05:10:11.001Z,0
2018-01-06T05:11:11.569Z,0
2018-01-06T05:12:12.152Z,0
2018-01-06T05:13:12.721Z,0
2018-01-06T05:14:13.291Z,0
2018-01-06T05:15:13.866Z,0
2018-01-06T05:16:14.430Z,0
2018-01-06T05:17:14.998Z,0
2018-01-06T05:18:15.566Z,0
2018-01-06T05:19:16.134Z,0
2018-01-06T05:20:16.702Z,0
2018-01-06T05:21:17.273Z,0
2018-01-06T05:22:17.844Z,0
2018-01-06T05:23:18.424Z,0
2018-01-06T05:24:18.994Z,0
2018-01-06T05:25:19.562Z,0
2018-01-06T05:26:20.131Z,0
2018-01-06T05:27:20.699Z,0
2018-01-06T05:28:21.267Z,0
2018-01-06T05:29:21.834Z,0
2018-01-06T05:30:22.404Z,0
2018-01-06T05:31:23.017Z,0
2018-01-06T05:32:23.553Z,0
2018-01-06T05:33:24.124Z,0
2018-01-06T05:34:24.708Z,0
2018-01-06T05:35:25.289Z,0
2018-01-06T05:36:25.857Z,0
2018-01-06T05:37:26.427Z,0
2018-01-06T05:38:26.999Z,0
2018-01-06T05:39:27.569Z,0
2018-01-06T05:40:28.151Z,0
2018-01-06T05:41:28.720Z,0
2018-01-06T05:42:29.289Z,0
2018-01-06T05:43:29.858Z,0
2018-01-06T05:44:30.427Z,0
2018-01-06T05:45:30.997Z,0
2018-01-06T05:46:31.570Z,0
2018-01-06T05:47:32.153Z,0
2018-01-06T05:48:32.721Z,0
2018-01-06T05:49:33.291Z,0
2018-01-06T05:50:33.878Z,0
2018-01-06T05:51:34.427Z,0
2018-01-06T05:52:34.996Z,0
2018-01-06T05:53:35.568Z,0
2018-01-06T05:54:36.138Z,0
2018-01-06T05:55:36.707Z,0
2018-01-06T05:56:37.276Z,0
2018-01-06T05:57:37.845Z,0
2018-01-06T05:58:38.416Z,0
2018-01-06T05:59:38.987Z,0
2018-01-06T06:00:39.556Z,0
2018-01-06T06:01:40.128Z,0
2018-01-06T06:02:40.708Z,0
2018-01-06T06:03:41.278Z,0
2018-01-06T06:04:41.846Z,0
2018-01-06T06:05:42.415Z,0
2018-01-06T06:06:42.999Z,0
2018-01-06T06:07:43.566Z,0
2018-01-06T06:08:44.135Z,0
2018-01-06T06:09:44.719Z,0
2018-01-06T06:10:45.289Z,0
2018-01-06T06:11:45.861Z,0
2018-01-06T06:12:46.429Z,0
2018-01-06T06:13:46.999Z,0
2018-01-06T06:14:47.567Z,0
2018-01-06T06:15:48.136Z,0
2018-01-06T06:16:48.708Z,0
2018-01-06T06:17:49.278Z,0
2018-01-06T06:18:49.846Z,0
2018-01-06T06:19:50.415Z,0
2018-01-06T06:20:50.983Z,0
2018-01-06T06:21:51.551Z,0
2018-01-06T06:22:52.134Z,0
2018-01-06T06:23:52.704Z,0
2018-01-06T06:24:53.272Z,0
2018-01-06T06:25:53.842Z,0
2018-01-06T06:26:54.422Z,0
2018-01-06T06:27:54.990Z,0
2018-01-06T06:28:55.559Z,0
2018-01-06T06:29:56.130Z,0
2018-01-06T06:30:56.699Z,0
2018-01-06T06:31:57.268Z,0
2018-01-06T06:32:57.838Z,0
2018-01-06T06:33:58.407Z,0
2018-01-06T06:34:58.978Z,0
2018-01-06T06:35:59.551Z,0
2018-01-06T06:37:00.119Z,0
2018-01-06T06:38:00.688Z,0
2018-01-06T06:39:01.257Z,0
2018-01-06T06:40:01.829Z,0
2018-01-06T06:41:02.399Z,0
2018-01-06T06:42:02.969Z,0
2018-01-06T06:43:03.536Z,0
2018-01-06T06:44:04.103Z,0
2018-01-06T06:45:04.674Z,0
2018-01-06T06:46:05.240Z,0
2018-01-06T06:47:05.823Z,0
2018-01-06T06:48:06.407Z,0
2018-01-06T06:49:07.029Z,0
2018-01-06T06:50:07.545Z,0
2018-01-06T06:51:08.114Z,0
2018-01-06T06:52:08.684Z,0
2018-01-06T06:53:09.255Z,0
2018-01-06T06:54:09.823Z,0
2018-01-06T06:55:10.394Z,0
2018-01-06T06:56:10.963Z,0
2018-01-06T06:57:11.532Z,0
2018-01-06T06:58:12.115Z,0
2018-01-06T06:59:12.685Z,0
2018-01-06T07:00:13.254Z,0
2018-01-06T07:01:13.824Z,0
2018-01-06T07:02:14.406Z,0
2018-01-06T07:03:14.975Z,0
2018-01-06T07:04:15.546Z,0
2018-01-06T07:05:16.115Z,0
2018-01-06T07:06:16.685Z,0
2018-01-06T07:07:17.254Z,0
2018-01-06T07:08:17.825Z,0
2018-01-06T07:09:18.396Z,0
2018-01-06T07:10:18.965Z,0
2018-01-06T07:11:19.536Z,0
2018-01-06T07:12:20.105Z,0
2018-01-06T07:13:20.689Z,0
2018-01-06T07:14:21.259Z,0
2018-01-06T07:15:21.827Z,0
2018-01-06T07:16:22.398Z,0
2018-01-06T07:17:22.968Z,0
2018-01-06T07:18:23.552Z,0
2018-01-06T07:19:24.123Z,0
2018-01-06T07:20:24.694Z,0
2018-01-06T07:21:25.263Z,4
2018-01-06T07:22:25.832Z,4
2018-01-06T07:23:26.403Z,0
2018-01-06T07:24:26.973Z,0
2018-01-06T07:25:27.554Z,4
2018-01-06T07:26:28.126Z,4
2018-01-06T07:27:28.698Z,4
2018-01-06T07:28:29.269Z,4
2018-01-06T07:29:29.838Z,4
2018-01-06T07:30:30.407Z,4
2018-01-06T07:31:30.978Z,4
2018-01-06T07:32:31.548Z,4
2018-01-06T07:33:32.135Z,4
2018-01-06T07:34:32.703Z,8
2018-01-06T07:35:33.272Z,8
2018-01-06T07:36:33.859Z,4
2018-01-06T07:37:34.431Z,8
2018-01-06T07:38:35.015Z,8
2018-01-06T07:39:35.584Z,8
2018-01-06T07:40:36.153Z,8
2018-01-06T07:41:36.724Z,12
2018-01-06T07:42:37.295Z,8
2018-01-06T07:43:37.868Z,12
2018-01-06T07:44:38.437Z,12
2018-01-06T07:45:39.006Z,8
2018-01-06T07:46:39.576Z,12
2018-01-06T07:47:40.150Z,16
2018-01-06T07:48:40.765Z,16
2018-01-06T07:49:41.290Z,12
2018-01-06T07:50:41.860Z,20
2018-01-06T07:51:42.431Z,20
2018-01-06T07:52:43.003Z,20
2018-01-06T07:53:43.576Z,20
2018-01-06T07:54:44.148Z,20
2018-01-06T07:55:44.718Z,20
2018-01-06T07:56:45.303Z,20
2018-01-06T07:57:45.875Z,20
2018-01-06T07:58:46.446Z,28
2018-01-06T07:59:47.017Z,24
2018-01-06T08:00:47.588Z,28
2018-01-06T08:01:48.160Z,28
2018-01-06T08:02:48.731Z,32
2018-01-06T08:03:49.302Z,28
2018-01-06T08:04:49.873Z,28
2018-01-06T08:05:50.442Z,32
2018-01-06T08:06:51.015Z,32
2018-01-06T08:07:51.599Z,32
2018-01-06T08:08:52.172Z,32
2018-01-06T08:09:52.742Z,32
2018-01-06T08:10:53.312Z,32
2018-01-06T08:11:53.882Z,28
2018-01-06T08:12:54.453Z,32
2018-01-06T08:13:55.027Z,32
2018-01-06T08:14:55.609Z,36
2018-01-06T08:15:56.180Z,36
2018-01-06T08:16:56.751Z,40
2018-01-06T08:17:57.324Z,40
2018-01-06T08:18:57.907Z,36
2018-01-06T08:19:58.482Z,40
2018-01-06T08:20:59.058Z,44
2018-01-06T08:21:59.621Z,44
2018-01-06T08:23:00.192Z,44
2018-01-06T08:24:00.776Z,48
2018-01-06T08:25:01.346Z,48
2018-01-06T08:26:01.916Z,48
2018-01-06T08:27:02.488Z,52
2018-01-06T08:28:03.074Z,56
2018-01-06T08:29:03.645Z,56
2018-01-06T08:30:04.229Z,60
2018-01-06T08:31:04.800Z,60
2018-01-06T08:32:05.369Z,64
2018-01-06T08:33:05.986Z,64
2018-01-06T08:34:06.509Z,64
2018-01-06T08:35:07.079Z,64
2018-01-06T08:36:07.652Z,64
2018-01-06T08:37:08.223Z,68
2018-01-06T08:38:08.793Z,72
2018-01-06T08:39:09.365Z,76
2018-01-06T08:40:09.936Z,76
2018-01-06T08:41:10.507Z,76
2018-01-06T08:42:11.094Z,76
2018-01-06T08:43:11.664Z,76
2018-01-06T08:44:12.234Z,76
2018-01-06T08:45:12.806Z,76
2018-01-06T08:46:13.376Z,76
2018-01-06T08:47:13.948Z,76
2018-01-06T08:48:14.518Z,80
2018-01-06T08:49:15.089Z,80
2018-01-06T08:50:15.673Z,80
2018-01-06T08:51:16.245Z,84
2018-01-06T08:52:16.852Z,84
2018-01-06T08:53:17.387Z,88
2018-01-06T08:54:17.972Z,88
2018-01-06T08:55:18.558Z,92
2018-01-06T08:56:19.128Z,96
2018-01-06T08:57:19.699Z,100
2018-01-06T08:58:20.270Z,100
2018-01-06T08:59:20.842Z,108
2018-01-06T09:00:21.414Z,112
2018-01-06T09:01:21.985Z,112
2018-01-06T09:02:22.557Z,116
2018-01-06T09:03:23.143Z,120
2018-01-06T09:04:23.716Z,124
2018-01-06T09:05:24.288Z,124
2018-01-06T09:06:24.859Z,132
2018-01-06T09:07:25.445Z,132
2018-01-06T09:08:26.016Z,132
2018-01-06T09:09:26.588Z,132
2018-01-06T09:10:27.161Z,136
2018-01-06T09:11:27.731Z,136
2018-01-06T09:12:28.304Z,136
2018-01-06T09:13:28.878Z,140
2018-01-06T09:14:29.449Z,140
2018-01-06T09:15:30.039Z,140
2018-01-06T09:16:30.607Z,144
2018-01-06T09:17:31.183Z,148
2018-01-06T09:18:31.767Z,148
2018-01-06T09:19:32.341Z,152
2018-01-06T09:20:32.912Z,152
2018-01-06T09:21:33.484Z,156
2018-01-06T09:22:34.056Z,160
2018-01-06T09:23:34.629Z,168
2018-01-06T09:24:35.200Z,176
2018-01-06T09:25:35.772Z,180
2018-01-06T09:26:36.345Z,192
2018-01-06T09:27:36.916Z,192
2018-01-06T09:28:37.486Z,196
2018-01-06T09:29:38.060Z,200
2018-01-06T09:30:38.631Z,200
2018-01-06T09:31:39.204Z,208
2018-01-06T09:32:39.777Z,208
2018-01-06T09:33:40.351Z,216
2018-01-06T09:34:40.925Z,216
2018-01-06T09:35:41.497Z,208
2018-01-06T09:36:42.071Z,208
2018-01-06T09:37:42.659Z,204
2018-01-06T09:38:43.233Z,196
2018-01-06T09:39:43.804Z,200
2018-01-06T09:40:44.375Z,196
2018-01-06T09:41:44.954Z,200
2018-01-06T09:42:45.520Z,204
2018-01-06T09:43:46.096Z,216
2018-01-06T09:44:46.682Z,220
2018-01-06T09:45:47.256Z,240
2018-01-06T09:46:47.828Z,240
2018-01-06T09:47:48.402Z,240
2018-01-06T09:48:48.976Z,244
2018-01-06T09:49:49.550Z,236
2018-01-06T09:50:50.123Z,228
2018-01-06T09:51:50.697Z,220
2018-01-06T09:52:51.270Z,224
2018-01-06T09:53:51.844Z,228
2018-01-06T09:54:52.418Z,236
2018-01-06T09:55:53.041Z,240
2018-01-06T09:56:53.565Z,244
2018-01-06T09:57:54.140Z,248
2018-01-06T09:58:54.712Z,252
2018-01-06T09:59:55.286Z,268
2018-01-06T10:00:55.865Z,272
2018-01-06T10:01:56.432Z,276
2018-01-06T10:02:57.006Z,284
2018-01-06T10:03:57.579Z,284
2018-01-06T10:04:58.152Z,296
2018-01-06T10:05:58.726Z,284
2018-01-06T10:06:59.303Z,276
2018-01-06T10:07:59.875Z,268
2018-01-06T10:09:00.449Z,260
2018-01-06T10:10:01.021Z,256
2018-01-06T10:11:01.596Z,244
2018-01-06T10:12:02.168Z,244
2018-01-06T10:13:02.741Z,244
2018-01-06T10:14:03.328Z,244
2018-01-06T10:15:03.901Z,248
2018-01-06T10:16:04.474Z,252
2018-01-06T10:17:05.048Z,260
2018-01-06T10:18:05.620Z,272
2018-01-06T10:19:06.197Z,272
2018-01-06T10:20:06.769Z,268
2018-01-06T10:21:07.341Z,264
2018-01-06T10:22:07.915Z,252
2018-01-06T10:23:08.503Z,248
2018-01-06T10:24:09.077Z,244
2018-01-06T10:25:09.649Z,236
2018-01-06T10:26:10.223Z,232
2018-01-06T10:27:10.798Z,228
2018-01-06T10:28:11.371Z,232
2018-01-06T10:29:11.944Z,244
2018-01-06T10:30:12.521Z,252
2018-01-06T10:31:13.106Z,260
2018-01-06T10:32:13.680Z,264
2018-01-06T10:33:14.253Z,268
2018-01-06T10:34:14.828Z,268
2018-01-06T10:35:15.415Z,268
2018-01-06T10:36:15.988Z,268
2018-01-06T10:37:16.562Z,272
2018-01-06T10:38:17.136Z,272
2018-01-06T10:39:17.708Z,276
2018-01-06T10:40:18.296Z,276
2018-01-06T10:41:18.869Z,276
2018-01-06T10:42:19.445Z,276
2018-01-06T10:43:20.018Z,280
2018-01-06T10:44:20.606Z,276
2018-01-06T10:45:21.179Z,272
2018-01-06T10:46:21.754Z,268
2018-01-06T10:47:22.328Z,272
2018-01-06T10:48:22.902Z,276
2018-01-06T10:49:23.476Z,276
2018-01-06T10:50:24.049Z,284
2018-01-06T10:51:24.623Z,296
2018-01-06T10:52:25.212Z,312
2018-01-06T10:53:25.785Z,316
2018-01-06T10:54:26.358Z,304
2018-01-06T10:55:26.934Z,292
2018-01-06T10:56:27.670Z,276
2018-01-06T10:57:28.244Z,268
2018-01-06T10:58:28.818Z,256
2018-01-06T10:59:29.393Z,248
2018-01-06T11:00:29.965Z,248
2018-01-06T11:01:30.539Z,256
2018-01-06T11:02:31.115Z,260
2018-01-06T11:03:31.688Z,260
2018-01-06T11:04:32.268Z,264
2018-01-06T11:05:32.836Z,264
2018-01-06T11:06:33.409Z,268
2018-01-06T11:07:33.982Z,272
2018-01-06T11:08:34.557Z,280
2018-01-06T11:09:35.129Z,280
2018-01-06T11:10:35.702Z,276
2018-01-06T11:11:36.278Z,268
2018-01-06T11:12:36.852Z,260
2018-01-06T11:13:37.424Z,252
2018-01-06T11:14:38.000Z,244
2018-01-06T11:15:38.575Z,240
2018-01-06T11:16:39.145Z,236
2018-01-06T11:17:39.733Z,236
2018-01-06T11:18:40.308Z,244
2018-01-06T11:19:40.882Z,244
2018-01-06T11:20:41.455Z,248
2018-01-06T11:21:42.028Z,248
2018-01-06T11:22:42.601Z,248
2018-01-06T11:23:43.175Z,248
2018-01-06T11:24:43.749Z,248
2018-01-06T11:25:44.336Z,248
2018-01-06T11:26:44.915Z,248
2018-01-06T11:27:45.486Z,248
2018-01-06T11:28:46.097Z,244
2018-01-06T11:29:46.632Z,244
2018-01-06T11:30:47.206Z,240
2018-01-06T11:31:47.779Z,232
2018-01-06T11:32:48.354Z,236
2018-01-06T11:33:48.928Z,232
2018-01-06T11:34:49.500Z,228
2018-01-06T11:35:50.072Z,220
2018-01-06T11:36:50.645Z,216
2018-01-06T11:37:51.218Z,220
2018-01-06T11:38:51.790Z,216
2018-01-06T11:39:52.364Z,220
2018-01-06T11:40:52.937Z,224
2018-01-06T11:41:53.510Z,228
2018-01-06T11:42:54.085Z,232
2018-01-06T11:43:54.664Z,232
2018-01-06T11:44:55.247Z,228
2018-01-06T11:45:55.822Z,232
2018-01-06T11:46:56.400Z,232
2018-01-06T11:47:56.971Z,240
2018-01-06T11:48:57.550Z,248
2018-01-06T11:49:58.132Z,256
2018-01-06T11:50:58.705Z,264
2018-01-06T11:51:59.280Z,264
2018-01-06T11:52:59.855Z,260
2018-01-06T11:54:00.429Z,256
2018-01-06T11:55:01.004Z,244
2018-01-06T11:56:01.577Z,232
2018-01-06T11:57:02.150Z,228
2018-01-06T11:58:02.723Z,224
2018-01-06T11:59:03.298Z,220
2018-01-06T12:00:03.871Z,220
2018-01-06T12:01:04.458Z,220
2018-01-06T12:02:05.034Z,216
2018-01-06T12:03:05.620Z,216
2018-01-06T12:04:06.195Z,216
2018-01-06T12:05:06.768Z,220
2018-01-06T12:06:07.340Z,232
2018-01-06T12:07:07.916Z,240
2018-01-06T12:08:08.489Z,236
2018-01-06T12:09:09.063Z,232
2018-01-06T12:10:09.636Z,224
2018-01-06T12:11:10.210Z,224
2018-01-06T12:12:10.784Z,224
2018-01-06T12:13:11.360Z,220
2018-01-06T12:14:11.932Z,216
2018-01-06T12:15:12.520Z,220
2018-01-06T12:16:13.094Z,224
2018-01-06T12:17:13.670Z,228
2018-01-06T12:18:14.243Z,228
2018-01-06T12:19:14.817Z,224
2018-01-06T12:20:15.392Z,220
2018-01-06T12:21:15.964Z,216
2018-01-06T12:22:16.538Z,216
2018-01-06T12:23:17.110Z,212
2018-01-06T12:24:17.698Z,212
2018-01-06T12:25:18.282Z,204
2018-01-06T12:26:18.856Z,204
2018-01-06T12:27:19.430Z,196
2018-01-06T12:28:20.002Z,200
2018-01-06T12:29:20.573Z,208
2018-01-06T12:30:21.145Z,212
2018-01-06T12:31:21.719Z,220
2018-01-06T12:32:22.293Z,224
2018-01-06T12:33:22.866Z,228
2018-01-06T12:34:23.441Z,236
2018-01-06T12:35:24.017Z,240
2018-01-06T12:36:24.589Z,240
2018-01-06T12:37:25.164Z,240
2018-01-06T12:38:25.739Z,244
2018-01-06T12:39:26.327Z,244
2018-01-06T12:40:26.900Z,244
2018-01-06T12:41:27.473Z,244
2018-01-06T12:42:28.048Z,244
2018-01-06T12:43:28.621Z,236
2018-01-06T12:44:29.194Z,236
2018-01-06T12:45:29.776Z,232
2018-01-06T12:46:30.343Z,224
2018-01-06T12:47:30.917Z,220
2018-01-06T12:48:31.492Z,216
2018-01-06T12:49:32.080Z,212
2018-01-06T12:50:32.667Z,216
2018-01-06T12:51:33.240Z,212
2018-01-06T12:52:33.811Z,212
2018-01-06T12:53:34.399Z,208
2018-01-06T12:54:34.972Z,208
2018-01-06T12:55:35.549Z,208
2018-01-06T12:56:36.118Z,204
2018-01-06T12:57:36.690Z,204
2018-01-06T12:58:37.262Z,196
2018-01-06T12:59:37.835Z,192
2018-01-06T13:00:38.410Z,184
2018-01-06T13:01:38.996Z,184
2018-01-06T13:02:39.583Z,176
2018-01-06T13:03:40.154Z,172
2018-01-06T13:04:40.728Z,168
2018-01-06T13:05:41.301Z,164
2018-01-06T13:06:41.888Z,160
2018-01-06T13:07:42.476Z,160
2018-01-06T13:08:43.049Z,160
2018-01-06T13:09:43.636Z,164
2018-01-06T13:10:44.209Z,164
2018-01-06T13:11:44.781Z,164
2018-01-06T13:12:45.355Z,168
2018-01-06T13:13:45.926Z,168
2018-01-06T13:14:46.502Z,164
2018-01-06T13:15:47.075Z,164
2018-01-06T13:16:47.645Z,164
2018-01-06T13:17:48.217Z,160
2018-01-06T13:18:48.790Z,160
2018-01-06T13:19:49.364Z,156
2018-01-06T13:20:49.993Z,156
2018-01-06T13:21:50.524Z,156
2018-01-06T13:22:51.098Z,160
2018-01-06T13:23:51.685Z,160
2018-01-06T13:24:52.258Z,160
2018-01-06T13:25:52.833Z,160
2018-01-06T13:26:53.405Z,160
2018-01-06T13:27:53.981Z,164
2018-01-06T13:28:54.563Z,164
2018-01-06T13:29:55.150Z,168
2018-01-06T13:30:55.724Z,168
2018-01-06T13:31:56.296Z,164
2018-01-06T13:32:56.869Z,164
2018-01-06T13:33:57.441Z,160
2018-01-06T13:34:58.013Z,160
2018-01-06T13:35:58.587Z,160
2018-01-06T13:36:59.160Z,160
2018-01-06T13:37:59.732Z,164
2018-01-06T13:39:00.306Z,168
2018-01-06T13:40:00.878Z,164
2018-01-06T13:41:01.450Z,168
2018-01-06T13:42:02.024Z,172
2018-01-06T13:43:02.598Z,168
2018-01-06T13:44:03.168Z,168
2018-01-06T13:45:03.741Z,168
2018-01-06T13:46:04.314Z,168
2018-01-06T13:47:04.902Z,168
2018-01-06T13:48:05.476Z,176
2018-01-06T13:49:06.049Z,176
2018-01-06T13:50:06.621Z,168
2018-01-06T13:51:07.195Z,164
2018-01-06T13:52:07.767Z,164
2018-01-06T13:53:08.340Z,160
2018-01-06T13:54:08.913Z,156
2018-01-06T13:55:09.487Z,156
2018-01-06T13:56:10.060Z,148
2018-01-06T13:57:10.634Z,144
2018-01-06T13:58:11.220Z,140
2018-01-06T13:59:11.794Z,140
2018-01-06T14:00:12.370Z,140
2018-01-06T14:01:12.958Z,140
2018-01-06T14:02:13.529Z,140
2018-01-06T14:03:14.103Z,140
2018-01-06T14:04:14.678Z,140
2018-01-06T14:05:15.249Z,140
2018-01-06T14:06:15.821Z,140
2018-01-06T14:07:16.396Z,144
2018-01-06T14:08:16.968Z,144
2018-01-06T14:09:17.541Z,144
2018-01-06T14:10:18.113Z,144
2018-01-06T14:11:18.730Z,144
2018-01-06T14:12:19.261Z,140
2018-01-06T14:13:19.834Z,132
2018-01-06T14:14:20.407Z,128
2018-01-06T14:15:20.994Z,124
2018-01-06T14:16:21.581Z,120
2018-01-06T14:17:22.155Z,120
2018-01-06T14:18:22.728Z,116
2018-01-06T14:19:23.301Z,116
2018-01-06T14:20:23.875Z,112
2018-01-06T14:21:24.448Z,112
2018-01-06T14:22:25.036Z,112
2018-01-06T14:23:25.610Z,112
2018-01-06T14:24:26.182Z,112
2018-01-06T14:25:26.758Z,108
2018-01-06T14:26:27.331Z,104
2018-01-06T14:27:27.922Z,100
2018-01-06T14:28:28.492Z,96